sensor_id;sensor_type;location;lat;lon;timestamp;temperature;humidity
67557;DHT22;54387;53.526;49.300;2022-07-03T00:02:14;14.90;63.50
67557;DHT22;54387;53.526;49.300;2022-07-03T00:04:40;14.90;63.60
67557;DHT22;54387;53.526;49.300;2022-07-03T00:07:07;14.90;63.60
67557;DHT22;54387;53.526;49.300;2022-07-03T00:09:33;14.90;63.70
67557;DHT22;54387;53.526;49.300;2022-07-03T00:12:00;14.90;63.90
67557;DHT22;54387;53.526;49.300;2022-07-03T00:14:26;14.80;64.00
67557;DHT22;54387;53.526;49.300;2022-07-03T00:16:52;14.80;64.00
67557;DHT22;54387;53.526;49.300;2022-07-03T00:19:18;14.80;64.10
67557;DHT22;54387;53.526;49.300;2022-07-03T00:22:05;14.70;64.10
67557;DHT22;54387;53.526;49.300;2022-07-03T00:24:37;14.70;64.20
67557;DHT22;54387;53.526;49.300;2022-07-03T00:27:08;14.70;64.20
67557;DHT22;54387;53.526;49.300;2022-07-03T00:29:41;14.70;64.20
67557;DHT22;54387;53.526;49.300;2022-07-03T00:32:10;14.70;64.30
67557;DHT22;54387;53.526;49.300;2022-07-03T00:34:40;14.70;64.30
67557;DHT22;54387;53.526;49.300;2022-07-03T00:37:09;14.60;64.30
67557;DHT22;54387;53.526;49.300;2022-07-03T00:39:37;14.60;64.30
67557;DHT22;54387;53.526;49.300;2022-07-03T00:42:06;14.60;64.30
67557;DHT22;54387;53.526;49.300;2022-07-03T00:44:45;14.60;64.30
67557;DHT22;54387;53.526;49.300;2022-07-03T00:47:13;14.60;64.50
67557;DHT22;54387;53.526;49.300;2022-07-03T00:49:40;14.50;64.50
67557;DHT22;54387;53.526;49.300;2022-07-03T00:52:09;14.60;64.60
67557;DHT22;54387;53.526;49.300;2022-07-03T00:54:42;14.60;64.60
67557;DHT22;54387;53.526;49.300;2022-07-03T00:57:16;14.50;64.60
67557;DHT22;54387;53.526;49.300;2022-07-03T00:59:43;14.50;64.70
67557;DHT22;54387;53.526;49.300;2022-07-03T01:02:25;14.50;64.70
67557;DHT22;54387;53.526;49.300;2022-07-03T01:16:36;14.50;64.70
67557;DHT22;54387;53.526;49.300;2022-07-03T01:30:11;14.60;65.00
67557;DHT22;54387;53.526;49.300;2022-07-03T01:32:52;14.60;65.00
67557;DHT22;54387;53.526;49.300;2022-07-03T01:35:32;14.60;65.00
67557;DHT22;54387;53.526;49.300;2022-07-03T01:38:02;14.60;65.00
67557;DHT22;54387;53.526;49.300;2022-07-03T01:40:32;14.70;65.20
67557;DHT22;54387;53.526;49.300;2022-07-03T01:42:59;14.70;65.20
67557;DHT22;54387;53.526;49.300;2022-07-03T01:45:27;14.80;65.20
67557;DHT22;54387;53.526;49.300;2022-07-03T01:47:58;14.80;65.00
67557;DHT22;54387;53.526;49.300;2022-07-03T01:50:26;14.90;64.90
67557;DHT22;54387;53.526;49.300;2022-07-03T01:52:54;15.00;64.90
67557;DHT22;54387;53.526;49.300;2022-07-03T01:55:23;15.10;64.80
67557;DHT22;54387;53.526;49.300;2022-07-03T01:57:50;15.20;64.70
67557;DHT22;54387;53.526;49.300;2022-07-03T02:00:19;15.30;64.50
67557;DHT22;54387;53.526;49.300;2022-07-03T02:05:26;15.60;64.20
67557;DHT22;54387;53.526;49.300;2022-07-03T02:08:03;15.80;64.00
67557;DHT22;54387;53.526;49.300;2022-07-03T02:10:34;15.90;63.90
67557;DHT22;54387;53.526;49.300;2022-07-03T02:13:08;16.00;63.80
67557;DHT22;54387;53.526;49.300;2022-07-03T02:15:41;16.10;63.50
67557;DHT22;54387;53.526;49.300;2022-07-03T02:18:29;16.30;63.10
67557;DHT22;54387;53.526;49.300;2022-07-03T02:21:07;16.40;62.90
67557;DHT22;54387;53.526;49.300;2022-07-03T02:24:25;16.50;62.70
67557;DHT22;54387;53.526;49.300;2022-07-03T02:26:32;16.60;62.50
67557;DHT22;54387;53.526;49.300;2022-07-03T02:29:04;16.70;62.20
67557;DHT22;54387;53.526;49.300;2022-07-03T02:31:38;16.80;62.10
67557;DHT22;54387;53.526;49.300;2022-07-03T02:34:07;16.90;62.00
67557;DHT22;54387;53.526;49.300;2022-07-03T02:36:35;17.00;61.80
67557;DHT22;54387;53.526;49.300;2022-07-03T02:39:05;17.10;61.60
67557;DHT22;54387;53.526;49.300;2022-07-03T02:41:44;17.20;61.30
67557;DHT22;54387;53.526;49.300;2022-07-03T02:47:43;17.20;61.00
67557;DHT22;54387;53.526;49.300;2022-07-03T02:55:38;17.00;60.80
67557;DHT22;54387;53.526;49.300;2022-07-03T03:00:35;17.00;60.90
67557;DHT22;54387;53.526;49.300;2022-07-03T03:03:03;17.00;60.70
67557;DHT22;54387;53.526;49.300;2022-07-03T03:05:48;17.00;60.70
67557;DHT22;54387;53.526;49.300;2022-07-03T03:08:48;17.00;60.70
67557;DHT22;54387;53.526;49.300;2022-07-03T03:13:56;16.90;60.80
67557;DHT22;54387;53.526;49.300;2022-07-03T03:16:26;16.90;60.90
67557;DHT22;54387;53.526;49.300;2022-07-03T03:18:52;16.90;60.80
67557;DHT22;54387;53.526;49.300;2022-07-03T03:21:21;16.80;60.90
67557;DHT22;54387;53.526;49.300;2022-07-03T03:23:50;16.80;61.00
67557;DHT22;54387;53.526;49.300;2022-07-03T03:26:19;16.90;61.10
67557;DHT22;54387;53.526;49.300;2022-07-03T03:28:46;17.00;61.00
67557;DHT22;54387;53.526;49.300;2022-07-03T03:31:12;17.20;60.90
67557;DHT22;54387;53.526;49.300;2022-07-03T03:33:40;17.30;60.70
67557;DHT22;54387;53.526;49.300;2022-07-03T03:36:11;17.30;60.70
67557;DHT22;54387;53.526;49.300;2022-07-03T03:38:38;17.40;60.80
67557;DHT22;54387;53.526;49.300;2022-07-03T03:41:05;17.30;60.70
67557;DHT22;54387;53.526;49.300;2022-07-03T03:43:33;17.30;60.70
67557;DHT22;54387;53.526;49.300;2022-07-03T03:46:00;17.40;60.70
67557;DHT22;54387;53.526;49.300;2022-07-03T03:48:27;17.40;60.80
67557;DHT22;54387;53.526;49.300;2022-07-03T03:50:55;17.50;60.70
67557;DHT22;54387;53.526;49.300;2022-07-03T03:53:24;17.60;60.50
67557;DHT22;54387;53.526;49.300;2022-07-03T03:58:20;17.80;60.30
67557;DHT22;54387;53.526;49.300;2022-07-03T04:00:46;17.90;60.20
67557;DHT22;54387;53.526;49.300;2022-07-03T04:03:12;18.00;60.10
67557;DHT22;54387;53.526;49.300;2022-07-03T04:05:38;18.00;60.10
67557;DHT22;54387;53.526;49.300;2022-07-03T04:08:05;18.00;60.00
67557;DHT22;54387;53.526;49.300;2022-07-03T04:10:31;18.10;59.50
67557;DHT22;54387;53.526;49.300;2022-07-03T04:12:57;18.10;59.20
67557;DHT22;54387;53.526;49.300;2022-07-03T04:15:23;18.10;59.20
67557;DHT22;54387;53.526;49.300;2022-07-03T04:17:53;18.20;59.00
67557;DHT22;54387;53.526;49.300;2022-07-03T04:20:19;18.20;58.70
67557;DHT22;54387;53.526;49.300;2022-07-03T04:22:45;18.30;58.50
67557;DHT22;54387;53.526;49.300;2022-07-03T04:25:12;18.30;58.30
67557;DHT22;54387;53.526;49.300;2022-07-03T04:27:38;18.40;58.10
67557;DHT22;54387;53.526;49.300;2022-07-03T04:30:04;18.30;57.80
67557;DHT22;54387;53.526;49.300;2022-07-03T04:32:36;18.30;57.70
67557;DHT22;54387;53.526;49.300;2022-07-03T04:35:03;18.30;57.60
67557;DHT22;54387;53.526;49.300;2022-07-03T04:37:29;18.20;57.70
67557;DHT22;54387;53.526;49.300;2022-07-03T04:39:55;18.30;57.60
67557;DHT22;54387;53.526;49.300;2022-07-03T04:42:21;18.30;57.40
67557;DHT22;54387;53.526;49.300;2022-07-03T04:44:48;18.40;57.20
67557;DHT22;54387;53.526;49.300;2022-07-03T04:47:14;18.50;57.20
67557;DHT22;54387;53.526;49.300;2022-07-03T04:49:41;18.60;57.20
67557;DHT22;54387;53.526;49.300;2022-07-03T04:52:08;18.70;57.00
67557;DHT22;54387;53.526;49.300;2022-07-03T04:54:35;18.80;56.40
67557;DHT22;54387;53.526;49.300;2022-07-03T04:57:02;18.80;56.20
67557;DHT22;54387;53.526;49.300;2022-07-03T04:59:29;18.90;56.00
67557;DHT22;54387;53.526;49.300;2022-07-03T05:01:55;19.00;56.10
67557;DHT22;54387;53.526;49.300;2022-07-03T05:04:22;19.10;55.70
67557;DHT22;54387;53.526;49.300;2022-07-03T05:06:48;19.20;55.00
67557;DHT22;54387;53.526;49.300;2022-07-03T05:09:14;19.20;54.90
67557;DHT22;54387;53.526;49.300;2022-07-03T05:11:41;19.30;55.10
67557;DHT22;54387;53.526;49.300;2022-07-03T05:14:07;19.40;54.90
67557;DHT22;54387;53.526;49.300;2022-07-03T05:16:34;19.50;55.10
67557;DHT22;54387;53.526;49.300;2022-07-03T05:19:00;19.50;54.50
67557;DHT22;54387;53.526;49.300;2022-07-03T05:21:26;19.60;54.50
67557;DHT22;54387;53.526;49.300;2022-07-03T05:23:52;19.70;54.50
67557;DHT22;54387;53.526;49.300;2022-07-03T05:26:19;19.80;54.30
67557;DHT22;54387;53.526;49.300;2022-07-03T05:28:45;19.90;54.10
67557;DHT22;54387;53.526;49.300;2022-07-03T05:31:12;20.00;53.80
67557;DHT22;54387;53.526;49.300;2022-07-03T05:33:38;20.00;53.70
67557;DHT22;54387;53.526;49.300;2022-07-03T05:36:05;20.10;53.50
67557;DHT22;54387;53.526;49.300;2022-07-03T05:38:31;20.20;53.30
67557;DHT22;54387;53.526;49.300;2022-07-03T05:41:27;20.30;53.30
67557;DHT22;54387;53.526;49.300;2022-07-03T05:43:53;20.40;53.50
67557;DHT22;54387;53.526;49.300;2022-07-03T05:46:20;20.50;53.60
67557;DHT22;54387;53.526;49.300;2022-07-03T05:48:46;20.60;52.80
67557;DHT22;54387;53.526;49.300;2022-07-03T05:51:12;20.70;52.60
67557;DHT22;54387;53.526;49.300;2022-07-03T05:53:38;20.70;52.60
67557;DHT22;54387;53.526;49.300;2022-07-03T05:56:05;20.80;52.50
67557;DHT22;54387;53.526;49.300;2022-07-03T05:58:31;20.90;52.20
67557;DHT22;54387;53.526;49.300;2022-07-03T06:00:57;20.90;51.70
67557;DHT22;54387;53.526;49.300;2022-07-03T06:03:24;21.00;51.30
67557;DHT22;54387;53.526;49.300;2022-07-03T06:05:50;21.10;51.10
67557;DHT22;54387;53.526;49.300;2022-07-03T06:08:16;21.10;51.20
67557;DHT22;54387;53.526;49.300;2022-07-03T06:10:42;21.20;51.00
67557;DHT22;54387;53.526;49.300;2022-07-03T06:13:08;21.30;50.90
67557;DHT22;54387;53.526;49.300;2022-07-03T06:15:35;21.40;50.80
67557;DHT22;54387;53.526;49.300;2022-07-03T06:18:01;21.40;50.30
67557;DHT22;54387;53.526;49.300;2022-07-03T06:20:27;21.50;50.20
67557;DHT22;54387;53.526;49.300;2022-07-03T06:22:54;21.60;50.40
67557;DHT22;54387;53.526;49.300;2022-07-03T06:25:23;21.70;50.20
67557;DHT22;54387;53.526;49.300;2022-07-03T06:27:49;21.80;49.80
67557;DHT22;54387;53.526;49.300;2022-07-03T06:30:15;21.90;49.50
67557;DHT22;54387;53.526;49.300;2022-07-03T06:32:42;22.00;49.40
67557;DHT22;54387;53.526;49.300;2022-07-03T06:35:08;22.00;49.80
67557;DHT22;54387;53.526;49.300;2022-07-03T06:37:34;22.20;49.50
67557;DHT22;54387;53.526;49.300;2022-07-03T06:40:01;22.30;49.10
67557;DHT22;54387;53.526;49.300;2022-07-03T06:42:27;22.40;48.40
67557;DHT22;54387;53.526;49.300;2022-07-03T06:44:53;22.50;48.50
67557;DHT22;54387;53.526;49.300;2022-07-03T06:47:20;22.60;48.20
67557;DHT22;54387;53.526;49.300;2022-07-03T06:49:46;22.70;47.10
67557;DHT22;54387;53.526;49.300;2022-07-03T06:52:12;22.70;46.10
67557;DHT22;54387;53.526;49.300;2022-07-03T06:54:38;22.80;45.50
67557;DHT22;54387;53.526;49.300;2022-07-03T06:57:07;22.90;45.40
67557;DHT22;54387;53.526;49.300;2022-07-03T06:59:33;22.90;45.00
67557;DHT22;54387;53.526;49.300;2022-07-03T07:01:59;23.00;45.50
67557;DHT22;54387;53.526;49.300;2022-07-03T07:04:26;23.20;45.60
67557;DHT22;54387;53.526;49.300;2022-07-03T07:06:52;23.30;44.40
67557;DHT22;54387;53.526;49.300;2022-07-03T07:09:18;23.30;44.10
67557;DHT22;54387;53.526;49.300;2022-07-03T07:11:44;23.30;43.70
67557;DHT22;54387;53.526;49.300;2022-07-03T07:14:11;23.30;43.50
67557;DHT22;54387;53.526;49.300;2022-07-03T07:16:37;23.30;43.70
67557;DHT22;54387;53.526;49.300;2022-07-03T07:19:03;23.40;43.20
67557;DHT22;54387;53.526;49.300;2022-07-03T07:21:29;23.40;43.20
67557;DHT22;54387;53.526;49.300;2022-07-03T07:23:56;23.50;42.80
67557;DHT22;54387;53.526;49.300;2022-07-03T07:26:22;23.50;42.70
67557;DHT22;54387;53.526;49.300;2022-07-03T07:28:49;23.50;42.80
67557;DHT22;54387;53.526;49.300;2022-07-03T07:31:15;23.50;42.80
67557;DHT22;54387;53.526;49.300;2022-07-03T07:33:42;23.60;42.50
67557;DHT22;54387;53.526;49.300;2022-07-03T07:36:08;23.80;42.40
67557;DHT22;54387;53.526;49.300;2022-07-03T07:38:34;23.90;42.70
67557;DHT22;54387;53.526;49.300;2022-07-03T07:41:03;24.10;42.00
67557;DHT22;54387;53.526;49.300;2022-07-03T07:43:29;24.20;41.20
67557;DHT22;54387;53.526;49.300;2022-07-03T07:45:56;24.10;40.70
67557;DHT22;54387;53.526;49.300;2022-07-03T07:48:22;24.10;41.00
67557;DHT22;54387;53.526;49.300;2022-07-03T07:50:48;24.20;41.00
67557;DHT22;54387;53.526;49.300;2022-07-03T07:53:16;24.40;40.60
67557;DHT22;54387;53.526;49.300;2022-07-03T07:55:42;24.60;40.50
67557;DHT22;54387;53.526;49.300;2022-07-03T07:58:08;24.60;39.90
67557;DHT22;54387;53.526;49.300;2022-07-03T08:00:35;24.80;39.50
67557;DHT22;54387;53.526;49.300;2022-07-03T08:03:01;24.90;38.70
67557;DHT22;54387;53.526;49.300;2022-07-03T08:05:46;25.10;38.30
67557;DHT22;54387;53.526;49.300;2022-07-03T08:08:16;25.20;37.70
67557;DHT22;54387;53.526;49.300;2022-07-03T08:10:48;25.40;37.30
67557;DHT22;54387;53.526;49.300;2022-07-03T08:13:16;25.70;36.90
67557;DHT22;54387;53.526;49.300;2022-07-03T08:15:44;26.10;36.60
67557;DHT22;54387;53.526;49.300;2022-07-03T08:18:10;26.40;36.10
67557;DHT22;54387;53.526;49.300;2022-07-03T08:20:37;26.80;35.30
67557;DHT22;54387;53.526;49.300;2022-07-03T08:23:04;27.00;34.80
67557;DHT22;54387;53.526;49.300;2022-07-03T08:25:31;27.20;34.60
67557;DHT22;54387;53.526;49.300;2022-07-03T08:27:58;27.40;35.20
67557;DHT22;54387;53.526;49.300;2022-07-03T08:30:26;27.70;35.00
67557;DHT22;54387;53.526;49.300;2022-07-03T08:32:54;27.90;33.70
67557;DHT22;54387;53.526;49.300;2022-07-03T08:35:21;27.90;33.70
67557;DHT22;54387;53.526;49.300;2022-07-03T08:37:48;27.90;32.90
67557;DHT22;54387;53.526;49.300;2022-07-03T08:40:16;27.80;32.60
67557;DHT22;54387;53.526;49.300;2022-07-03T08:42:52;27.80;32.60
67557;DHT22;54387;53.526;49.300;2022-07-03T08:45:20;27.80;32.30
67557;DHT22;54387;53.526;49.300;2022-07-03T08:47:48;27.80;32.50
67557;DHT22;54387;53.526;49.300;2022-07-03T08:50:17;27.80;32.60
67557;DHT22;54387;53.526;49.300;2022-07-03T08:52:44;27.80;32.70
67557;DHT22;54387;53.526;49.300;2022-07-03T08:55:12;27.70;33.80
67557;DHT22;54387;53.526;49.300;2022-07-03T08:57:42;27.60;33.00
67557;DHT22;54387;53.526;49.300;2022-07-03T09:00:17;27.60;32.80
67557;DHT22;54387;53.526;49.300;2022-07-03T09:02:46;27.60;32.10
67557;DHT22;54387;53.526;49.300;2022-07-03T09:05:14;27.60;32.00
67557;DHT22;54387;53.526;49.300;2022-07-03T09:07:42;27.60;31.80
67557;DHT22;54387;53.526;49.300;2022-07-03T09:10:11;27.50;31.70
67557;DHT22;54387;53.526;49.300;2022-07-03T09:12:38;27.60;31.30
67557;DHT22;54387;53.526;49.300;2022-07-03T09:15:06;27.60;31.20
67557;DHT22;54387;53.526;49.300;2022-07-03T09:17:33;27.60;31.60
67557;DHT22;54387;53.526;49.300;2022-07-03T09:20:02;27.70;31.60
67557;DHT22;54387;53.526;49.300;2022-07-03T09:22:32;27.80;30.70
67557;DHT22;54387;53.526;49.300;2022-07-03T09:25:09;27.80;31.10
67557;DHT22;54387;53.526;49.300;2022-07-03T09:27:38;27.80;30.30
67557;DHT22;54387;53.526;49.300;2022-07-03T09:30:09;27.90;30.80
67557;DHT22;54387;53.526;49.300;2022-07-03T09:32:43;28.10;30.30
67557;DHT22;54387;53.526;49.300;2022-07-03T09:35:24;28.40;29.80
67557;DHT22;54387;53.526;49.300;2022-07-03T09:37:55;28.70;29.90
67557;DHT22;54387;53.526;49.300;2022-07-03T09:40:26;29.90;29.80
67557;DHT22;54387;53.526;49.300;2022-07-03T09:43:04;31.10;28.30
67557;DHT22;54387;53.526;49.300;2022-07-03T09:46:00;31.20;27.70
67557;DHT22;54387;53.526;49.300;2022-07-03T09:48:29;30.90;27.70
67557;DHT22;54387;53.526;49.300;2022-07-03T09:51:33;30.60;27.70
67557;DHT22;54387;53.526;49.300;2022-07-03T09:54:01;30.20;27.70
67557;DHT22;54387;53.526;49.300;2022-07-03T09:56:36;29.90;28.10
67557;DHT22;54387;53.526;49.300;2022-07-03T09:59:08;29.60;28.30
67557;DHT22;54387;53.526;49.300;2022-07-03T10:01:39;29.20;28.70
67557;DHT22;54387;53.526;49.300;2022-07-03T10:04:18;28.90;28.90
67557;DHT22;54387;53.526;49.300;2022-07-03T10:06:49;29.10;29.20
67557;DHT22;54387;53.526;49.300;2022-07-03T10:09:20;29.40;28.60
67557;DHT22;54387;53.526;49.300;2022-07-03T10:11:47;29.30;28.30
67557;DHT22;54387;53.526;49.300;2022-07-03T10:14:19;29.10;28.10
67557;DHT22;54387;53.526;49.300;2022-07-03T10:16:46;28.90;28.20
67557;DHT22;54387;53.526;49.300;2022-07-03T10:21:43;28.80;28.60
67557;DHT22;54387;53.526;49.300;2022-07-03T10:24:11;29.30;28.40
67557;DHT22;54387;53.526;49.300;2022-07-03T10:26:39;30.00;28.10
67557;DHT22;54387;53.526;49.300;2022-07-03T10:29:08;31.00;27.70
67557;DHT22;54387;53.526;49.300;2022-07-03T10:31:34;31.10;26.90
67557;DHT22;54387;53.526;49.300;2022-07-03T10:34:01;30.90;26.70
67557;DHT22;54387;53.526;49.300;2022-07-03T10:36:28;30.50;26.40
67557;DHT22;54387;53.526;49.300;2022-07-03T10:38:57;31.10;26.30
67557;DHT22;54387;53.526;49.300;2022-07-03T10:41:47;31.30;25.80
67557;DHT22;54387;53.526;49.300;2022-07-03T10:44:35;30.90;26.00
67557;DHT22;54387;53.526;49.300;2022-07-03T10:47:42;32.00;26.10
67557;DHT22;54387;53.526;49.300;2022-07-03T10:50:15;34.20;24.70
67557;DHT22;54387;53.526;49.300;2022-07-03T10:52:43;34.20;24.30
67557;DHT22;54387;53.526;49.300;2022-07-03T10:55:11;33.70;24.40
67557;DHT22;54387;53.526;49.300;2022-07-03T10:57:39;33.00;24.70
67557;DHT22;54387;53.526;49.300;2022-07-03T11:00:24;32.10;25.00
67557;DHT22;54387;53.526;49.300;2022-07-03T11:02:51;31.10;25.60
67557;DHT22;54387;53.526;49.300;2022-07-03T11:05:24;30.60;26.00
67557;DHT22;54387;53.526;49.300;2022-07-03T11:15:46;36.40;23.40
67557;DHT22;54387;53.526;49.300;2022-07-03T11:18:29;38.70;22.50
67557;DHT22;54387;53.526;49.300;2022-07-03T11:21:16;40.70;21.50
67557;DHT22;54387;53.526;49.300;2022-07-03T11:24:00;42.90;20.20
67557;DHT22;54387;53.526;49.300;2022-07-03T11:26:28;44.30;19.30
67557;DHT22;54387;53.526;49.300;2022-07-03T11:28:54;44.90;18.90
67557;DHT22;54387;53.526;49.300;2022-07-03T11:31:22;44.70;18.20
67557;DHT22;54387;53.526;49.300;2022-07-03T11:36:23;45.20;18.20
67557;DHT22;54387;53.526;49.300;2022-07-03T11:39:12;44.10;18.20
67557;DHT22;54387;53.526;49.300;2022-07-03T11:44:06;40.10;19.80
67557;DHT22;54387;53.526;49.300;2022-07-03T11:46:35;38.20;20.50
67557;DHT22;54387;53.526;49.300;2022-07-03T11:51:35;34.80;22.00
67557;DHT22;54387;53.526;49.300;2022-07-03T11:54:03;34.20;22.70
67557;DHT22;54387;53.526;49.300;2022-07-03T11:56:30;34.80;22.80
67557;DHT22;54387;53.526;49.300;2022-07-03T11:59:01;34.60;22.70
67557;DHT22;54387;53.526;49.300;2022-07-03T12:01:36;33.90;23.20
67557;DHT22;54387;53.526;49.300;2022-07-03T12:04:18;33.20;23.50
67557;DHT22;54387;53.526;49.300;2022-07-03T12:06:48;32.30;24.00
67557;DHT22;54387;53.526;49.300;2022-07-03T12:14:45;30.50;25.50
67557;DHT22;54387;53.526;49.300;2022-07-03T12:19:55;32.50;24.80
67557;DHT22;54387;53.526;49.300;2022-07-03T12:22:33;35.10;23.30
67557;DHT22;54387;53.526;49.300;2022-07-03T12:25:12;37.40;22.10
67557;DHT22;54387;53.526;49.300;2022-07-03T12:27:41;39.10;20.80
67557;DHT22;54387;53.526;49.300;2022-07-03T12:30:20;39.30;20.70
67557;DHT22;54387;53.526;49.300;2022-07-03T12:32:48;38.50;20.40
67557;DHT22;54387;53.526;49.300;2022-07-03T12:35:21;37.40;21.80
67557;DHT22;54387;53.526;49.300;2022-07-03T12:37:47;36.50;21.20
67557;DHT22;54387;53.526;49.300;2022-07-03T12:40:14;35.90;21.70
67557;DHT22;54387;53.526;49.300;2022-07-03T12:42:48;35.20;22.10
67557;DHT22;54387;53.526;49.300;2022-07-03T12:45:16;34.70;22.60
67557;DHT22;54387;53.526;49.300;2022-07-03T12:47:44;34.80;22.60
67557;DHT22;54387;53.526;49.300;2022-07-03T12:50:10;35.50;22.30
67557;DHT22;54387;53.526;49.300;2022-07-03T12:52:55;35.90;22.10
67557;DHT22;54387;53.526;49.300;2022-07-03T12:55:26;35.90;22.20
67557;DHT22;54387;53.526;49.300;2022-07-03T12:58:12;35.60;22.00
67557;DHT22;54387;53.526;49.300;2022-07-03T13:00:57;36.00;22.10
67557;DHT22;54387;53.526;49.300;2022-07-03T13:03:35;36.20;21.50
67557;DHT22;54387;53.526;49.300;2022-07-03T13:06:01;35.70;21.90
67557;DHT22;54387;53.526;49.300;2022-07-03T13:08:28;35.10;22.40
67557;DHT22;54387;53.526;49.300;2022-07-03T13:10:58;35.10;22.20
67557;DHT22;54387;53.526;49.300;2022-07-03T13:13:26;36.00;21.90
67557;DHT22;54387;53.526;49.300;2022-07-03T13:15:52;37.00;21.60
67557;DHT22;54387;53.526;49.300;2022-07-03T13:18:18;37.40;21.30
67557;DHT22;54387;53.526;49.300;2022-07-03T13:20:45;37.40;20.70
67557;DHT22;54387;53.526;49.300;2022-07-03T13:23:11;37.20;20.80
67557;DHT22;54387;53.526;49.300;2022-07-03T13:25:38;36.60;21.20
67557;DHT22;54387;53.526;49.300;2022-07-03T13:28:10;36.00;21.50
67557;DHT22;54387;53.526;49.300;2022-07-03T13:30:39;35.40;21.60
67557;DHT22;54387;53.526;49.300;2022-07-03T13:33:06;35.00;21.70
67557;DHT22;54387;53.526;49.300;2022-07-03T13:35:34;34.50;22.20
67557;DHT22;54387;53.526;49.300;2022-07-03T13:38:01;34.00;22.60
67557;DHT22;54387;53.526;49.300;2022-07-03T13:40:27;33.50;22.60
67557;DHT22;54387;53.526;49.300;2022-07-03T13:42:54;33.10;23.20
67557;DHT22;54387;53.526;49.300;2022-07-03T13:45:20;32.60;23.10
67557;DHT22;54387;53.526;49.300;2022-07-03T13:47:47;32.10;23.40
67557;DHT22;54387;53.526;49.300;2022-07-03T13:50:13;31.70;23.60
67557;DHT22;54387;53.526;49.300;2022-07-03T13:52:39;31.40;23.70
67557;DHT22;54387;53.526;49.300;2022-07-03T13:55:06;31.30;23.70
67557;DHT22;54387;53.526;49.300;2022-07-03T13:57:32;31.40;23.70
67557;DHT22;54387;53.526;49.300;2022-07-03T13:59:59;31.10;24.60
67557;DHT22;54387;53.526;49.300;2022-07-03T14:02:26;30.70;24.00
67557;DHT22;54387;53.526;49.300;2022-07-03T14:04:52;30.50;24.40
67557;DHT22;54387;53.526;49.300;2022-07-03T14:07:18;30.60;24.50
67557;DHT22;54387;53.526;49.300;2022-07-03T14:09:44;30.50;24.20
67557;DHT22;54387;53.526;49.300;2022-07-03T14:12:11;30.30;24.20
67557;DHT22;54387;53.526;49.300;2022-07-03T14:14:37;30.20;24.70
67557;DHT22;54387;53.526;49.300;2022-07-03T14:17:03;30.20;24.80
67557;DHT22;54387;53.526;49.300;2022-07-03T14:19:30;30.10;24.70
67557;DHT22;54387;53.526;49.300;2022-07-03T14:21:59;29.90;24.50
67557;DHT22;54387;53.526;49.300;2022-07-03T14:24:25;29.90;24.60
67557;DHT22;54387;53.526;49.300;2022-07-03T14:26:51;30.00;24.80
67557;DHT22;54387;53.526;49.300;2022-07-03T14:29:36;29.90;24.80
67557;DHT22;54387;53.526;49.300;2022-07-03T14:32:20;29.80;24.80
67557;DHT22;54387;53.526;49.300;2022-07-03T14:34:56;29.60;24.90
67557;DHT22;54387;53.526;49.300;2022-07-03T14:37:23;29.30;25.30
67557;DHT22;54387;53.526;49.300;2022-07-03T14:39:49;29.00;25.40
67557;DHT22;54387;53.526;49.300;2022-07-03T14:42:16;28.80;25.20
67557;DHT22;54387;53.526;49.300;2022-07-03T14:44:43;28.60;25.40
67557;DHT22;54387;53.526;49.300;2022-07-03T14:47:09;28.50;25.50
67557;DHT22;54387;53.526;49.300;2022-07-03T14:49:36;28.50;25.60
67557;DHT22;54387;53.526;49.300;2022-07-03T14:52:06;28.60;25.60
67557;DHT22;54387;53.526;49.300;2022-07-03T14:54:33;28.80;25.50
67557;DHT22;54387;53.526;49.300;2022-07-03T14:57:02;29.30;25.60
67557;DHT22;54387;53.526;49.300;2022-07-03T14:59:50;29.90;24.90
67557;DHT22;54387;53.526;49.300;2022-07-03T15:02:22;30.00;24.30
67557;DHT22;54387;53.526;49.300;2022-07-03T15:05:07;29.70;24.40
67557;DHT22;54387;53.526;49.300;2022-07-03T15:07:39;29.30;24.80
67557;DHT22;54387;53.526;49.300;2022-07-03T15:10:11;28.90;25.30
67557;DHT22;54387;53.526;49.300;2022-07-03T15:12:41;28.60;25.60
67557;DHT22;54387;53.526;49.300;2022-07-03T15:15:12;28.50;25.60
67557;DHT22;54387;53.526;49.300;2022-07-03T15:17:41;28.40;25.70
67557;DHT22;54387;53.526;49.300;2022-07-03T15:20:08;28.30;25.60
67557;DHT22;54387;53.526;49.300;2022-07-03T15:22:43;28.30;25.80
67557;DHT22;54387;53.526;49.300;2022-07-03T15:25:13;28.10;25.90
67557;DHT22;54387;53.526;49.300;2022-07-03T15:27:39;27.90;26.10
67557;DHT22;54387;53.526;49.300;2022-07-03T15:30:08;27.70;26.20
67557;DHT22;54387;53.526;49.300;2022-07-03T15:32:36;27.30;26.40
67557;DHT22;54387;53.526;49.300;2022-07-03T15:35:03;27.00;26.80
67557;DHT22;54387;53.526;49.300;2022-07-03T15:40:19;26.30;27.50
67557;DHT22;54387;53.526;49.300;2022-07-03T15:42:51;26.10;28.70
67557;DHT22;54387;53.526;49.300;2022-07-03T15:53:49;24.90;29.60
67557;DHT22;54387;53.526;49.300;2022-07-03T15:56:19;24.70;29.90
67557;DHT22;54387;53.526;49.300;2022-07-03T15:58:49;24.60;30.20
67557;DHT22;54387;53.526;49.300;2022-07-03T16:01:18;24.40;30.70
67557;DHT22;54387;53.526;49.300;2022-07-03T16:04:09;24.30;31.10
67557;DHT22;54387;53.526;49.300;2022-07-03T16:06:41;24.10;31.60
67557;DHT22;54387;53.526;49.300;2022-07-03T16:09:08;24.00;32.00
67557;DHT22;54387;53.526;49.300;2022-07-03T16:11:35;23.90;32.30
67557;DHT22;54387;53.526;49.300;2022-07-03T16:14:03;23.80;32.70
67557;DHT22;54387;53.526;49.300;2022-07-03T16:16:32;23.70;33.20
67557;DHT22;54387;53.526;49.300;2022-07-03T16:19:03;23.60;33.60
67557;DHT22;54387;53.526;49.300;2022-07-03T16:21:31;23.50;34.00
67557;DHT22;54387;53.526;49.300;2022-07-03T16:24:01;23.40;34.30
67557;DHT22;54387;53.526;49.300;2022-07-03T16:26:29;23.30;34.90
67557;DHT22;54387;53.526;49.300;2022-07-03T16:28:56;23.10;35.20
67557;DHT22;54387;53.526;49.300;2022-07-03T16:31:32;23.00;35.60
67557;DHT22;54387;53.526;49.300;2022-07-03T16:36:46;22.90;36.60
67557;DHT22;54387;53.526;49.300;2022-07-03T16:39:25;22.80;36.40
67557;DHT22;54387;53.526;49.300;2022-07-03T16:41:59;22.70;38.30
67557;DHT22;54387;53.526;49.300;2022-07-03T16:44:27;22.60;37.90
67557;DHT22;54387;53.526;49.300;2022-07-03T16:46:55;22.50;38.30
67557;DHT22;54387;53.526;49.300;2022-07-03T16:49:28;22.50;38.80
67557;DHT22;54387;53.526;49.300;2022-07-03T16:52:01;22.40;39.20
67557;DHT22;54387;53.526;49.300;2022-07-03T16:54:29;22.30;39.50